Flight Track Log - Related Links

Times and Time Zones

All times are in EDT time to prevent confusion due to time zone crossing. See the FLG3735 flight status page for this flight to view local times or setup timezone preferences in your user account.

Time Position Orientation Groundspeed Altitude Reporting Facility
EDT Latitude Longitude Course Direction KTS MPH feet Rate Location/Type
Sun 10:28:48 PM 42.2017 -83.3553 161° South 167 192 1,000  Level Cleveland Center
Sun 10:30:44 PM 42.1006 -83.3089 161° South 220 253 5,000 1,943 Climbing Cleveland Center
Sun 10:31:44 PM 42.1108 -83.2311 80° East 186 214 6,700 1,700 Climbing Cleveland Center
Sun 10:32:44 PM 42.1467 -83.1233 66° East 231 266 8,400 1,950 Climbing Cleveland Center
Sun 10:33:44 PM 42.1822 -83.0183 65° Northeast 270 311 10,600 1,664 Climbing Cleveland Center
Sun 10:34:43 PM 42.2222 -82.8964 66° East 316 364 11,700 1,350 Climbing Cleveland Center
Sun 10:35:44 PM 42.2644 -82.7689 66° East 346 398 13,300 1,587 Climbing Cleveland Center
Sun 10:36:44 PM 42.2981 -82.6325 72° East 369 425 14,900 1,350 Climbing Cleveland Center
Sun 10:37:44 PM 42.3111 -82.4842 83° East 385 443 16,000 1,109 Climbing Cleveland Center
Sun 10:38:43 PM 42.3239 -82.3300 84° East 403 464 17,100 1,109 Climbing Cleveland Center
Sun 10:39:43 PM 42.3367 -82.1758 84° East 413 475 18,200 1,150 Climbing Cleveland Center
Sun 10:40:43 PM 42.3556 -82.0106 81° East 431 496 19,400 1,100 Climbing Cleveland Center
Sun 10:41:43 PM 42.3658 -81.8450 85° East 443 510 20,400 950 Climbing Cleveland Center
Sun 10:42:43 PM 42.3800 -81.6767 83° East 448 516 21,300 900 Climbing Cleveland Center
Sun 10:43:43 PM 42.3917 -81.5250 84° East 448 516 22,200 850 Climbing Cleveland Center
Sun 10:44:43 PM 42.4056 -81.3508 84° East 461 531 23,000 800 Climbing Cleveland Center
Sun 10:45:43 PM 42.4211 -81.1767 83° East 466 536 23,800 800 Climbing Cleveland Center
Sun 10:46:43 PM 42.4344 -80.9939 84° East 466 536 24,600 600 Climbing Cleveland Center
Sun 10:47:43 PM 42.4475 -80.8167 84° East 473 544 25,000 200 Climbing Cleveland Center
Sun 10:48:43 PM 42.4622 -80.6086 84° East 483 556 25,000  Level Cleveland Center
Sun 10:49:43 PM 42.4767 -80.4228 84° East 506 582 25,000  Level Cleveland Center
Sun 10:50:43 PM 42.4908 -80.2283 84° East 506 582 25,000  Level Cleveland Center
Sun 10:51:43 PM 42.5028 -80.0425 85° East 501 577 25,000  Level Cleveland Center
Sun 10:52:43 PM 42.5164 -79.8650 84° East 501 577 25,000  Level Cleveland Center
Sun 10:53:43 PM 42.5297 -79.6758 84° East 501 577 25,000  Level Cleveland Center
Sun 10:54:43 PM 42.5406 -79.4814 86° East 506 582 25,000  Level Cleveland Center
Sun 10:55:43 PM 42.5550 -79.2811 84° East 517 595 25,000  Level Cleveland Center
Sun 10:56:43 PM 42.5650 -79.0833 86° East 522 601 25,000  Level Cleveland Center
Sun 10:57:43 PM 42.5750 -78.8858 86° East 522 601 25,000  Level Cleveland Center
Sun 10:58:43 PM 42.5864 -78.6853 86° East 522 601 25,000  Level Cleveland Center
Sun 10:59:43 PM 42.5975 -78.4847 86° East 527 606 25,000  Level Cleveland Center
Sun 11:00:43 PM 42.6061 -78.2869 87° East 527 606 25,000  Level Cleveland Center
Sun 11:01:43 PM 42.6167 -78.0861 86° East 527 606 25,000 -800 Level Cleveland Center
Sun 11:02:43 PM 42.6269 -77.8994 86° East 519 597 23,400 -1,000 Descending Cleveland Center
Sun 11:03:43 PM 42.6350 -77.7158 87° East 477 549 23,000 -118 Descending Cleveland Center
Sun 11:06:06 PM 42.6528 -77.3022 87° East 454 522 23,000  Level Boston Center
Sun 11:07:06 PM 42.6603 -77.1250 87° East 460 529 23,000  Level Boston Center
Sun 11:08:06 PM 42.6675 -76.9447 87° East 465 535 23,000  Level Boston Center
Sun 11:09:06 PM 42.6744 -76.7642 87° East 470 541 23,000  Level Boston Center
Sun 11:10:06 PM 42.6814 -76.5839 87° East 476 548 23,000  Level Boston Center
Sun 11:11:06 PM 42.6878 -76.4036 87° East 476 548 23,000  Level Boston Center
Sun 11:12:06 PM 42.6939 -76.2231 87° East 476 548 23,000 -50 Level Boston Center
Sun 11:13:06 PM 42.6978 -76.0367 88° East 476 548 22,900  Descending Boston Center
Sun 11:14:06 PM 42.7056 -75.8564 87° East 476 548 23,000 50 Climbing Boston Center
Sun 11:15:06 PM 42.7108 -75.6728 88° East 476 548 23,000  Level Boston Center
Sun 11:16:06 PM 42.7158 -75.4894 88° East 481 554 23,000 -950 Level Boston Center
Sun 11:17:06 PM 42.7206 -75.3114 88° East 476 548 21,100 -2,150 Descending Boston Center
Sun 11:18:06 PM 42.7228 -75.1364 89° East 469 540 18,700 -2,350 Descending Boston Center
Sun 11:19:06 PM 42.7286 -74.9697 87° East 455 524 16,400 -2,321 Descending Boston Center
Sun 11:19:52 PM 42.7294 -74.8397 89° East 428 493 14,600 -2,104 Descending Boston Center
Sun 11:20:23 PM 42.7350 -74.7694 84° East 419 482 13,700 -1,946 Descending Boston Center
Sun 11:21:06 PM 42.7333 -74.6506 91° East 420 483 12,200 -1,573 Descending Boston Center
Sun 11:22:06 PM 42.7047 -74.5056 105° East 405 466 11,000 -700 Descending Boston Center
Sun 11:23:06 PM 42.6758 -74.3689 106° East 381 438 10,800 -950 Descending Boston Center
Sun 11:24:06 PM 42.6508 -74.2467 106° East 350 403 9,100 -1,836 Descending Boston Center
Sun 11:25:20 PM 42.6194 -74.1075 107° East 301 346 6,700 -1,850 Descending Boston Center
Sun 11:26:06 PM 42.6183 -74.0428 91° East 294 338 5,400 -1,869 Descending Boston Center
Sun 11:26:21 PM 42.6189 -74.0061 89° East 282 325 4,800 -1,800 Descending Boston Center
Sun 11:27:06 PM 42.6197 -73.9356 89° East 284 327 3,600 -1,500 Descending Boston Center
Sun 11:27:21 PM 42.6203 -73.9017 89° East 256 295 3,300 -1,200 Descending Boston Center

Login

Don't have an account? Register now (free) for customized features, flight alerts, and more!